Mansfield, OH

5:52 PM EDT on April 24, 2017 (GMT -0400)
RICHLAND COUNTY/N8TWM | | Change Station

Elev 1207 ft 40.77 °N, 82.52 °W | Updated 6 seconds ago

Scattered Clouds
Scattered Clouds
71.6 °F
Feels Like 77 °F
N
9.2
Wind Variable Wind from South
Gusts 15.2 mph

Today
High -- | Low -- °F
--% Chance of Precip.
Yesterday
High -- | Low -- °F
Precip. -- in
Pressure 29.90 in
Visibility 10.0 miles
Clouds Scattered Clouds 5500 ft
Heat Index 77 °F
Dew Point 47 °F
Humidity 42%
Rainfall 0.00 in
Snow Depth Not available.
6:37 AM 8:19 PM
Waning Crescent, 4% visible
METAR KMFD 242052Z 10010G18KT 10SM SCT055 22/09 A2991 RMK AO2 SLP125 T02170089 57016 $
Pressure 29.90 in
Visibility 10.0 miles
Clouds Scattered Clouds 5500 ft
Heat Index 77 °F
Dew Point 47 °F
Humidity 42%
Rainfall 0.00 in
Snow Depth Not available.
6:37 AM 8:19 PM
Waning Crescent, 4% visible
METAR KMFD 242052Z 10010G18KT 10SM SCT055 22/09 A2991 RMK AO2 SLP125 T02170089 57016 $

Get Severe Weather Alerts

Thanks for signing up!

Be on the lookout for a verification email in your inbox.

You'll start receiving the daily forecast at 8 AM.

×

10-Day Weather Forecast

Almanac

Astronomy

Apr. 24, 2017 Rise Set
Actual Time
Civil Twilight
Nautical Twilight
Astronomical Twilight
Moon
Length of Visible Light
Length of Day
Tomorrow will be .
, % of the Moon is Illuminated

Today's Extremes

State Highs State Lows

Community

WunderPhotos

WunderBlog® & News

Nearby

Air Quality

  Air Quality AQ Index Pollutant
Not available.

Snow Depth

Station Depth Elevation

Earthquake Activity

City Distance Mag. Time & Date
Minimum magnitude displayed is 2.5.

Coastal Water Temperatures

Place Temperature

Stations

Nearby Weather Stations

Station Location Temp. Windchill Dew Point Humidity Wind Precip. Elev Updated Type
                   

Watches & Warnings

There are currently no watches in effect.